createdAt,value
2023-03-05T02:04:09.100Z,128.32
2023-03-05T02:06:36.416Z,119.53
2023-03-05T02:09:03.408Z,121.15
2023-03-05T02:11:30.474Z,119.07
2023-03-05T02:13:58.669Z,112.18
2023-03-05T02:16:25.616Z,112.70
2023-03-05T02:18:52.496Z,111.30
2023-03-05T02:21:37.279Z,100.18
2023-03-05T02:24:04.399Z,102.65
2023-03-05T02:26:31.250Z,104.40
2023-03-05T02:29:01.160Z,97.50
2023-03-05T02:31:28.333Z,96.93
2023-03-05T02:33:56.441Z,96.32
2023-03-05T02:36:24.362Z,87.95
2023-03-05T02:38:53.193Z,92.78
2023-03-05T02:41:20.113Z,88.07
2023-03-05T02:43:46.936Z,77.13
2023-03-05T02:46:13.829Z,82.82
2023-03-05T02:48:40.885Z,80.28
2023-03-05T02:51:08.687Z,71.07
2023-03-05T02:53:36.098Z,75.18
2023-03-05T02:56:03.741Z,79.13
2023-03-05T02:58:30.594Z,74.20
2023-03-05T03:00:57.510Z,76.93
2023-03-05T03:03:24.467Z,76.40
2023-03-05T03:05:51.376Z,82.00
2023-03-05T03:08:18.344Z,75.85
2023-03-05T03:10:45.411Z,76.70
2023-03-05T03:13:12.194Z,80.80
2023-03-05T03:15:40.571Z,86.43
2023-03-05T03:18:07.385Z,71.97
2023-03-05T03:20:35.063Z,77.25
2023-03-05T03:23:09.218Z,82.47
2023-03-05T03:25:36.106Z,81.55
2023-03-05T03:28:03.191Z,81.15
2023-03-05T03:30:30.102Z,79.88
2023-03-05T03:32:56.894Z,77.45
2023-03-05T03:35:23.747Z,84.80
2023-03-05T03:37:53.397Z,74.68
2023-03-05T03:40:20.517Z,81.78
2023-03-05T03:42:47.506Z,91.55
2023-03-05T03:45:14.613Z,78.30
2023-03-05T03:47:41.441Z,77.63
2023-03-05T03:50:08.917Z,78.03
2023-03-05T03:52:35.778Z,76.10
2023-03-05T03:55:02.659Z,77.88
2023-03-05T03:57:33.726Z,75.75
2023-03-05T04:00:00.827Z,72.13
2023-03-05T04:02:27.989Z,74.68
2023-03-05T04:04:54.954Z,74.35
2023-03-05T04:07:22.481Z,76.05
2023-03-05T04:09:49.690Z,84.38
2023-03-05T04:12:18.477Z,74.13
2023-03-05T04:14:47.152Z,78.30
2023-03-05T04:17:14.654Z,77.47
2023-03-05T04:19:42.333Z,74.28
2023-03-05T04:22:15.129Z,87.57
2023-03-05T04:24:42.241Z,81.43
2023-03-05T04:27:09.410Z,79.78
2023-03-05T04:29:37.027Z,78.95
2023-03-05T04:32:04.260Z,88.50
2023-03-05T04:34:31.264Z,72.90
2023-03-05T04:36:58.174Z,69.03
2023-03-05T04:39:25.395Z,76.13
2023-03-05T04:41:52.201Z,74.85
2023-03-05T04:44:19.403Z,80.88
2023-03-05T04:46:46.239Z,81.18
2023-03-05T04:49:13.269Z,71.00
2023-03-05T04:51:40.160Z,74.93
2023-03-05T04:54:07.001Z,73.13
2023-03-05T04:56:34.490Z,75.78
2023-03-05T04:59:01.351Z,74.28
2023-03-05T05:01:28.174Z,76.80
2023-03-05T05:03:55.064Z,84.72
2023-03-05T05:06:21.940Z,85.63
2023-03-05T05:08:48.966Z,86.05
2023-03-05T05:11:15.805Z,81.32
2023-03-05T05:13:42.810Z,89.50
2023-03-05T05:16:10.222Z,89.40
2023-03-05T05:18:37.205Z,85.60
2023-03-05T05:21:12.008Z,84.65
2023-03-05T05:23:39.494Z,78.53
2023-03-05T05:26:08.506Z,79.38
2023-03-05T05:28:36.108Z,83.20
2023-03-05T05:31:08.028Z,86.40
2023-03-05T05:33:35.005Z,79.57
2023-03-05T05:36:07.406Z,73.43
2023-03-05T05:38:34.305Z,87.35
2023-03-05T05:41:15.270Z,79.28
2023-03-05T05:43:42.382Z,73.72
2023-03-05T05:46:13.215Z,79.05
2023-03-05T05:48:40.627Z,73.53
2023-03-05T05:51:12.508Z,77.95
2023-03-05T05:53:39.661Z,75.85
2023-03-05T05:56:07.988Z,71.43
2023-03-05T05:58:36.103Z,65.35
2023-03-05T06:01:03.207Z,67.75
2023-03-05T06:03:30.151Z,64.82
2023-03-05T06:05:57.033Z,65.78
2023-03-05T06:08:23.825Z,72.90
2023-03-05T06:10:56.679Z,83.50
2023-03-05T06:13:23.442Z,77.28
2023-03-05T06:16:01.878Z,79.43
2023-03-05T06:18:28.934Z,65.57
2023-03-05T06:21:01.329Z,72.40
2023-03-05T06:23:28.557Z,74.32
2023-03-05T06:25:58.830Z,66.35
2023-03-05T06:28:26.085Z,64.95
2023-03-05T06:31:01.291Z,68.57
2023-03-05T06:33:28.117Z,69.68
2023-03-05T06:35:55.230Z,71.90
2023-03-05T06:38:22.267Z,73.60
2023-03-05T06:40:49.114Z,69.00
2023-03-05T06:43:15.966Z,68.78
2023-03-05T06:45:42.973Z,70.30
2023-03-05T06:48:09.848Z,72.35
2023-03-05T06:50:37.675Z,69.78
2023-03-05T06:53:04.563Z,67.35
2023-03-05T06:55:31.535Z,67.57
2023-03-05T06:57:58.318Z,59.88
2023-03-05T07:00:29.804Z,60.10
2023-03-05T07:02:56.622Z,66.13
2023-03-05T07:05:23.450Z,54.38
2023-03-05T07:07:50.366Z,47.85
2023-03-05T07:10:17.274Z,52.92
2023-03-05T07:12:44.078Z,48.60
2023-03-05T07:15:11.360Z,51.08
2023-03-05T07:17:38.182Z,53.85
2023-03-05T07:20:05.631Z,47.97
2023-03-05T07:22:32.516Z,50.28
2023-03-05T07:24:59.301Z,51.75
2023-03-05T07:27:26.271Z,45.75
2023-03-05T07:29:53.136Z,43.15
2023-03-05T07:32:25.332Z,46.05
2023-03-05T07:34:52.187Z,46.00
2023-03-05T07:37:19.058Z,28.65
2023-03-05T07:39:47.251Z,24.80
2023-03-05T07:42:14.275Z,26.70
2023-03-05T07:44:41.217Z,27.27
2023-03-05T07:47:08.027Z,24.00
2023-03-05T07:49:35.468Z,22.33
2023-03-05T07:52:02.300Z,21.98
2023-03-05T07:54:29.105Z,24.00
2023-03-05T07:56:56.118Z,20.42
2023-03-05T07:59:23.102Z,22.70
2023-03-05T08:01:49.999Z,21.35
2023-03-05T08:04:17.002Z,24.20
2023-03-05T08:06:43.925Z,21.33
2023-03-05T08:09:10.720Z,26.30
2023-03-05T08:11:37.493Z,23.67
2023-03-05T08:14:04.779Z,22.60
2023-03-05T08:16:31.654Z,22.48
2023-03-05T08:18:59.168Z,22.83
2023-03-05T08:21:33.915Z,28.38
2023-03-05T08:24:06.190Z,26.30
2023-03-05T08:26:35.736Z,28.90
2023-03-05T08:29:03.449Z,23.48
2023-03-05T08:31:31.681Z,26.38
2023-03-05T08:34:00.170Z,25.48
2023-03-05T08:36:27.881Z,24.75
2023-03-05T08:38:57.229Z,29.30
2023-03-05T08:41:24.117Z,34.08
2023-03-05T08:43:51.196Z,30.65
2023-03-05T08:46:18.365Z,26.67
2023-03-05T08:48:45.236Z,24.83
2023-03-05T08:51:15.791Z,28.05
2023-03-05T08:53:44.273Z,31.27
2023-03-05T08:56:12.519Z,24.25
2023-03-05T08:58:39.793Z,24.77
2023-03-05T09:01:07.346Z,25.02
2023-03-05T09:03:34.423Z,24.63
2023-03-05T09:06:02.944Z,25.77
2023-03-05T09:08:30.074Z,25.42
2023-03-05T09:10:57.609Z,25.67
2023-03-05T09:13:24.813Z,24.33
2023-03-05T09:15:56.698Z,24.17
2023-03-05T09:18:24.198Z,25.95
2023-03-05T09:20:51.391Z,22.77
2023-03-05T09:23:18.427Z,26.48
2023-03-05T09:25:45.368Z,27.17
2023-03-05T09:28:12.187Z,37.28
2023-03-05T09:30:39.704Z,35.70
2023-03-05T09:33:06.747Z,31.48
2023-03-05T09:35:37.922Z,28.65
2023-03-05T09:38:05.356Z,26.27
2023-03-05T09:40:47.044Z,22.88
2023-03-05T09:43:30.196Z,27.33
2023-03-05T09:46:16.321Z,25.02
2023-03-05T09:48:52.675Z,27.52
2023-03-05T09:51:29.200Z,30.52
2023-03-05T09:56:39.960Z,49.38
2023-03-05T09:59:15.946Z,33.92
2023-03-05T10:01:45.185Z,37.05
2023-03-05T10:04:18.712Z,28.40
2023-03-05T10:07:12.842Z,28.30
2023-03-05T10:09:54.922Z,29.23
2023-03-05T10:12:25.791Z,27.30
2023-03-05T10:14:53.117Z,24.83
2023-03-05T10:17:47.310Z,33.90
2023-03-05T10:20:38.416Z,25.38
2023-03-05T10:23:08.462Z,27.38
2023-03-05T10:25:54.999Z,27.55
2023-03-05T10:28:29.924Z,24.17
2023-03-05T10:31:35.522Z,23.05
2023-03-05T10:34:21.924Z,27.25
2023-03-05T10:37:37.013Z,20.10
2023-03-05T10:40:45.732Z,25.88
2023-03-05T10:43:25.258Z,25.13
2023-03-05T10:45:57.370Z,22.70
2023-03-05T10:48:45.371Z,26.90
2023-03-05T10:51:21.318Z,20.27
2023-03-05T10:53:55.369Z,23.27
2023-03-05T10:56:24.089Z,20.40
2023-03-05T10:58:53.004Z,32.35
2023-03-05T11:01:22.816Z,20.15
2023-03-05T11:03:59.339Z,19.38
2023-03-05T11:06:56.552Z,15.52
2023-03-05T11:09:32.936Z,14.05
2023-03-05T11:12:22.071Z,17.38
2023-03-05T11:15:26.916Z,19.50
2023-03-05T11:18:14.478Z,17.23
2023-03-05T11:20:41.941Z,45.88
2023-03-05T11:23:16.304Z,18.70
2023-03-05T11:26:13.485Z,14.10
2023-03-05T11:28:55.540Z,16.20
2023-03-05T11:31:28.338Z,20.48
2023-03-05T11:33:57.426Z,15.65
2023-03-05T11:36:42.260Z,15.13
2023-03-05T11:39:15.777Z,16.98
2023-03-05T11:42:01.761Z,19.55
2023-03-05T11:44:50.484Z,16.83
2023-03-05T11:47:26.598Z,18.80
2023-03-05T11:50:01.244Z,15.00
2023-03-05T11:52:40.013Z,14.75
2023-03-05T11:55:26.065Z,15.30
2023-03-05T11:58:11.816Z,15.15
2023-03-05T12:00:43.302Z,19.88
2023-03-05T12:03:20.949Z,17.45
2023-03-05T12:05:54.631Z,14.77
2023-03-05T12:08:30.400Z,13.43
2023-03-05T12:11:00.470Z,12.83
2023-03-05T12:13:44.684Z,17.58
2023-03-05T12:16:24.515Z,14.48
2023-03-05T12:19:11.362Z,12.45
2023-03-05T12:21:43.320Z,12.45
2023-03-05T12:24:28.010Z,9.85
2023-03-05T12:27:04.498Z,13.13
2023-03-05T12:29:53.122Z,16.13
2023-03-05T12:32:23.174Z,13.70
2023-03-05T12:34:57.850Z,16.70
2023-03-05T12:37:24.903Z,19.15
2023-03-05T12:39:59.249Z,16.17
2023-03-05T12:42:29.438Z,21.95
2023-03-05T12:45:17.212Z,25.65
2023-03-05T12:47:48.875Z,17.30
2023-03-05T12:50:28.030Z,16.48
2023-03-05T12:53:07.254Z,16.52
2023-03-05T12:55:46.124Z,16.65
2023-03-05T12:58:40.823Z,19.77
2023-03-05T13:01:26.359Z,18.55
2023-03-05T13:04:10.967Z,16.98
2023-03-05T13:06:39.709Z,16.65
2023-03-05T13:09:18.437Z,14.98
2023-03-05T13:11:50.016Z,16.00
2023-03-05T13:14:37.116Z,13.32
2023-03-05T13:19:50.715Z,14.35
2023-03-05T13:22:17.508Z,12.60
2023-03-05T13:24:44.360Z,19.25
2023-03-05T13:27:30.048Z,15.57
2023-03-05T13:29:57.209Z,19.88
2023-03-05T13:32:28.354Z,17.17
2023-03-05T13:34:58.419Z,17.27
2023-03-05T13:37:34.834Z,18.92
2023-03-05T13:40:29.384Z,16.55
2023-03-05T13:43:09.925Z,19.95
2023-03-05T13:45:37.027Z,15.68
2023-03-05T13:48:07.107Z,18.63
2023-03-05T13:50:39.959Z,18.13
2023-03-05T13:53:15.870Z,18.92
2023-03-05T13:55:42.847Z,17.70
2023-03-05T13:58:40.576Z,15.77
2023-03-05T14:01:29.898Z,18.42
2023-03-05T14:04:07.973Z,20.55
2023-03-05T14:06:41.679Z,19.05
2023-03-05T14:09:20.324Z,18.02
2023-03-05T14:11:59.302Z,21.92
2023-03-05T14:14:27.518Z,19.20
2023-03-05T14:16:54.826Z,19.05
2023-03-05T14:19:36.596Z,19.63
2023-03-05T14:22:04.999Z,38.08
2023-03-05T14:24:33.483Z,18.77
2023-03-05T14:27:21.506Z,19.35
2023-03-05T14:29:48.381Z,21.63
2023-03-05T14:32:38.859Z,19.00
2023-03-05T14:35:06.956Z,26.42
2023-03-05T14:37:42.434Z,23.00
2023-03-05T14:40:12.363Z,19.17
2023-03-05T14:42:42.132Z,22.35
2023-03-05T14:45:17.860Z,24.65
2023-03-05T14:47:45.081Z,21.67
2023-03-05T14:50:21.917Z,28.80
2023-03-05T14:52:51.457Z,27.88
2023-03-05T14:55:21.117Z,24.55
2023-03-05T14:57:49.140Z,29.65
2023-03-05T15:00:24.749Z,24.10
2023-03-05T15:02:52.018Z,24.63
2023-03-05T15:05:19.520Z,26.45
2023-03-05T15:07:47.714Z,25.10
2023-03-05T15:10:17.887Z,28.27
2023-03-05T15:12:45.292Z,35.92
2023-03-05T15:15:15.019Z,38.75
2023-03-05T15:17:48.602Z,28.15
2023-03-05T15:20:27.994Z,25.90
2023-03-05T15:22:55.704Z,26.55
2023-03-05T15:25:25.704Z,29.95
2023-03-05T15:27:53.079Z,21.05
2023-03-05T15:30:32.287Z,19.67
2023-03-05T15:33:02.637Z,21.38
2023-03-05T15:35:29.822Z,25.13
2023-03-05T15:37:58.177Z,25.88
2023-03-05T15:40:27.802Z,25.60
2023-03-05T15:42:58.914Z,22.50
2023-03-05T15:45:26.221Z,25.77
2023-03-05T15:47:53.690Z,23.90
2023-03-05T15:50:21.794Z,25.48
2023-03-05T15:52:49.822Z,23.75
2023-03-05T15:55:18.572Z,21.65
2023-03-05T15:57:48.125Z,24.90
2023-03-05T16:00:17.341Z,33.47
2023-03-05T16:02:44.224Z,28.08
2023-03-05T16:05:11.358Z,41.47
2023-03-05T16:07:42.426Z,32.17
2023-03-05T16:10:17.769Z,29.23
2023-03-05T16:12:47.138Z,36.10
2023-03-05T16:15:17.315Z,34.50
2023-03-05T16:17:47.710Z,34.08
2023-03-05T16:20:15.909Z,38.08
2023-03-05T16:22:42.858Z,33.25
2023-03-05T16:25:10.190Z,30.08
2023-03-05T16:27:37.104Z,32.70
2023-03-05T16:30:05.516Z,34.20
2023-03-05T16:32:32.784Z,35.58
2023-03-05T16:34:59.617Z,32.40
2023-03-05T16:37:26.547Z,32.60
2023-03-05T16:39:53.444Z,36.72
2023-03-05T16:42:20.246Z,36.50
2023-03-05T16:44:47.608Z,38.70
2023-03-05T16:47:14.569Z,36.00
2023-03-05T16:49:41.476Z,33.60
2023-03-05T16:52:18.195Z,31.05
2023-03-05T16:54:47.058Z,28.70
2023-03-05T16:57:15.248Z,32.83
2023-03-05T16:59:43.805Z,29.58
2023-03-05T17:02:13.331Z,31.02
2023-03-05T17:04:40.370Z,35.67
2023-03-05T17:07:07.683Z,34.08
2023-03-05T17:09:35.897Z,37.90
2023-03-05T17:12:02.803Z,35.17
2023-03-05T17:14:29.653Z,40.38
2023-03-05T17:16:59.025Z,35.20
2023-03-05T17:19:26.037Z,33.03
2023-03-05T17:21:53.050Z,36.33
2023-03-05T17:24:21.541Z,34.85
2023-03-05T17:26:50.268Z,43.10
2023-03-05T17:29:19.090Z,45.63
2023-03-05T17:31:46.975Z,50.42
2023-03-05T17:34:14.562Z,45.28
2023-03-05T17:36:41.626Z,42.38
2023-03-05T17:39:09.016Z,36.30
2023-03-05T17:41:35.912Z,37.25
2023-03-05T17:44:02.725Z,40.20
2023-03-05T17:46:29.684Z,41.50
2023-03-05T17:48:56.578Z,37.33
2023-03-05T17:51:23.372Z,37.28
2023-03-05T17:53:50.215Z,43.08
2023-03-05T17:56:17.473Z,33.63
2023-03-05T17:58:44.326Z,36.22
2023-03-05T18:01:11.771Z,32.45
2023-03-05T18:03:39.676Z,30.27
2023-03-05T18:06:06.836Z,30.25
2023-03-05T18:08:33.664Z,28.67
2023-03-05T18:11:00.712Z,39.92
2023-03-05T18:13:27.538Z,27.13
2023-03-05T18:15:57.528Z,34.05
2023-03-05T18:18:24.489Z,28.50
2023-03-05T18:20:51.396Z,33.70
2023-03-05T18:23:18.368Z,35.50
2023-03-05T18:25:45.332Z,35.75
2023-03-05T18:28:14.893Z,32.83
2023-03-05T18:30:43.198Z,29.85
2023-03-05T18:33:18.804Z,35.80
2023-03-05T18:35:46.555Z,31.90
2023-03-05T18:38:13.332Z,35.35
2023-03-05T18:40:40.805Z,37.10
2023-03-05T18:43:08.068Z,35.40
2023-03-05T18:45:34.878Z,40.40
2023-03-05T18:48:01.767Z,38.20
2023-03-05T18:50:29.269Z,36.00
2023-03-05T18:52:56.462Z,36.50
2023-03-05T18:55:27.139Z,32.78
2023-03-05T18:57:55.053Z,36.65
2023-03-05T19:00:28.029Z,33.70
2023-03-05T19:02:56.308Z,93.93
2023-03-05T19:05:25.696Z,107.68
2023-03-05T19:07:53.408Z,105.55
2023-03-05T19:10:22.683Z,106.97
2023-03-05T19:12:56.105Z,111.18
2023-03-05T19:15:23.317Z,106.93
2023-03-05T19:17:50.317Z,101.43
2023-03-05T19:20:18.419Z,113.18
2023-03-05T19:22:45.518Z,98.65
2023-03-05T19:25:13.200Z,92.57
2023-03-05T19:27:40.553Z,76.10
2023-03-05T19:30:13.029Z,68.63
2023-03-05T19:32:40.567Z,73.75
2023-03-05T19:35:07.746Z,67.97
2023-03-05T19:37:34.839Z,68.57
2023-03-05T19:40:01.655Z,67.47
2023-03-05T19:42:29.039Z,70.43
2023-03-05T19:44:57.798Z,66.15
2023-03-05T19:47:26.144Z,57.42
2023-03-05T19:49:53.129Z,59.75
2023-03-05T19:52:20.022Z,55.83
2023-03-05T19:54:47.430Z,56.00
2023-03-05T19:57:15.599Z,54.72
2023-03-05T19:59:44.209Z,53.55
2023-03-05T20:02:13.014Z,52.67
2023-03-05T20:04:40.049Z,55.15
2023-03-05T20:07:07.302Z,59.72
2023-03-05T20:09:34.187Z,60.97
2023-03-05T20:12:04.901Z,47.45
2023-03-05T20:14:31.773Z,46.83
2023-03-05T20:16:58.703Z,44.83
2023-03-05T20:19:25.878Z,48.78
2023-03-05T20:21:52.783Z,50.38
2023-03-05T20:24:20.452Z,53.20
2023-03-05T20:26:48.512Z,52.42
2023-03-05T20:29:18.083Z,49.97
2023-03-05T20:31:45.962Z,54.65
2023-03-05T20:34:15.885Z,57.47
2023-03-05T20:36:43.046Z,57.92
2023-03-05T20:39:10.038Z,61.60
2023-03-05T20:41:39.172Z,55.33
2023-03-05T20:44:08.025Z,48.75
2023-03-05T20:46:39.542Z,53.28
2023-03-05T20:49:25.164Z,52.97
2023-03-05T20:51:52.193Z,49.83
2023-03-05T20:54:19.224Z,53.90
2023-03-05T20:56:46.370Z,51.60
2023-03-05T20:59:13.209Z,52.35
2023-03-05T21:01:41.428Z,53.65
2023-03-05T21:04:09.235Z,54.17
2023-03-05T21:06:36.650Z,52.70
2023-03-05T21:09:04.801Z,51.05
2023-03-05T21:11:32.383Z,60.15
2023-03-05T21:13:59.664Z,53.72
2023-03-05T21:16:28.282Z,53.22
2023-03-05T21:18:56.469Z,54.85
2023-03-05T21:21:23.624Z,51.22
2023-03-05T21:23:50.765Z,48.92
2023-03-05T21:26:18.474Z,56.97
2023-03-05T21:28:45.938Z,51.40
2023-03-05T21:31:19.281Z,48.90
2023-03-05T21:33:47.173Z,48.95
2023-03-05T21:36:19.208Z,49.90
2023-03-05T21:38:50.006Z,49.70
2023-03-05T21:41:18.432Z,41.58
2023-03-05T21:43:46.037Z,43.22
2023-03-05T21:46:13.783Z,44.17
2023-03-05T21:48:41.107Z,45.05
2023-03-05T21:51:13.901Z,53.13
2023-03-05T21:53:40.749Z,60.70
2023-03-05T21:56:17.948Z,57.25
2023-03-05T21:58:44.974Z,59.47
2023-03-05T22:01:13.358Z,78.30
2023-03-05T22:03:40.371Z,99.25
2023-03-05T22:06:15.873Z,101.05
2023-03-05T22:08:43.165Z,113.60
2023-03-05T22:11:15.786Z,144.20
2023-03-05T22:13:43.013Z,153.80
2023-03-05T22:16:11.716Z,166.23
2023-03-05T22:18:38.879Z,175.70
2023-03-05T22:21:15.103Z,190.50
2023-03-05T22:23:41.945Z,186.25
2023-03-05T22:26:08.761Z,177.75
2023-03-05T22:28:36.708Z,189.38
2023-03-05T22:31:03.707Z,199.00
2023-03-05T22:33:31.770Z,192.63
2023-03-05T22:35:59.100Z,203.88
2023-03-05T22:38:26.327Z,200.93
2023-03-05T22:40:53.363Z,203.95
2023-03-05T22:43:21.192Z,206.02
2023-03-05T22:45:48.118Z,198.07
2023-03-05T22:48:15.030Z,190.73
2023-03-05T22:50:44.384Z,170.85
2023-03-05T22:53:12.717Z,176.10
2023-03-05T22:55:42.209Z,189.55
2023-03-05T22:58:09.339Z,173.75
2023-03-05T23:00:37.266Z,139.05
2023-03-05T23:03:06.377Z,123.05
2023-03-05T23:05:34.831Z,137.60
2023-03-05T23:08:01.877Z,127.20
2023-03-05T23:10:29.539Z,144.40
2023-03-05T23:12:58.704Z,149.85
2023-03-05T23:15:34.474Z,135.85
2023-03-05T23:18:02.166Z,137.02
2023-03-05T23:20:33.661Z,122.28
2023-03-05T23:23:02.298Z,125.95
2023-03-05T23:25:32.003Z,124.60
2023-03-05T23:28:00.361Z,128.60
2023-03-05T23:30:32.593Z,121.22
2023-03-05T23:33:02.743Z,119.25
2023-03-05T23:35:38.021Z,119.53
2023-03-05T23:38:12.591Z,96.15
2023-03-05T23:40:45.996Z,106.30
2023-03-05T23:43:13.505Z,98.68
2023-03-05T23:45:45.111Z,96.38
2023-03-05T23:48:12.174Z,94.78
2023-03-05T23:50:41.388Z,104.05
2023-03-05T23:53:09.878Z,100.72
2023-03-05T23:55:42.167Z,94.20
2023-03-05T23:58:09.565Z,93.78
